Baird, Mississippi
Current Conditions -  °F | °C
As of 3:53 PM on Saturday 25 Oct 2014 (Local Time) from KGLH Reporting Station
Clear Clear  
Wind Chill: 82°   Ceiling: Unl
Heat Index: 83°   Visibility: 10mi
Dew Point: 62°   Wind: 7mph
Humidity: 51%   Direction: 250°WSW
Pressure: 30.05"   Gusts: NA
Location:  33.4825°N, 90.6856°W
Report Text: KGLH 252053Z AUTO 25006KT 10SM CLR 28/17 A3005 RMK AO2 SLP181 T02780167 56021
Loading
Personal Weather Stations






























Interactive Weather Map
Tropical Storm Tracking
New forecast layout! Learn more

10-Day Weather Forecast

Advertisements
Track Severe Weather on mobile